Time;durP1;ratioP1;P1;durP2;ratioP2;P2;SDS_P1;SDS_P2;PMS_P1;PMS_P2;Temp;Humidity;BMP_temperature;BMP_pressure;BME280_temperature;BME280_humidity;BME280_pressure;Samples;Min_cycle;Max_cycle;Signal;HPM_P1;HPM_P2
2023/06/12 00:00:51;;;;;;;15.90;11.93;;;19.00;99.90;;;;;;5091390;28;20232;-77
2023/06/12 00:03:19;;;;;;;9.88;8.88;;;18.90;99.90;;;;;;5092160;28;20205;-77
2023/06/12 00:05:46;;;;;;;11.82;7.28;;;18.90;99.90;;;;;;5091294;28;20588;-70
2023/06/12 00:08:17;;;;;;;7.78;5.63;;;19.00;99.90;;;;;;5091867;28;20233;-72
2023/06/12 00:10:45;;;;;;;6.78;5.03;;;19.00;99.90;;;;;;5091381;28;20258;-70
2023/06/12 00:13:12;;;;;;;6.30;5.70;;;19.10;99.90;;;;;;5091827;28;20240;-70
2023/06/12 00:15:41;;;;;;;6.80;5.88;;;19.00;99.90;;;;;;5092235;28;20710;-74
2023/06/12 00:18:08;;;;;;;6.95;6.25;;;19.00;99.90;;;;;;5091500;28;20237;-69
2023/06/12 00:20:35;;;;;;;6.85;6.25;;;19.00;99.90;;;;;;5091704;28;20269;-74
2023/06/12 00:23:02;;;;;;;6.05;5.43;;;18.90;99.90;;;;;;5091168;28;20640;-76
2023/06/12 00:25:30;;;;;;;6.72;5.85;;;19.00;99.90;;;;;;5091354;28;20212;-71
2023/06/12 00:27:56;;;;;;;5.82;5.32;;;19.00;99.90;;;;;;5090889;28;20233;-77
2023/06/12 00:30:23;;;;;;;6.57;5.85;;;19.00;99.90;;;;;;5091669;28;20241;-76
2023/06/12 00:32:52;;;;;;;9.00;6.90;;;19.00;99.90;;;;;;5091164;28;20681;-73
2023/06/12 00:35:19;;;;;;;5.82;5.20;;;19.00;99.90;;;;;;5091379;28;20236;-73
2023/06/12 00:37:46;;;;;;;6.03;5.50;;;18.90;99.90;;;;;;5091138;28;20695;-71
2023/06/12 00:40:14;;;;;;;5.95;5.45;;;18.90;99.90;;;;;;5090804;28;20264;-75
2023/06/12 00:42:46;;;;;;;6.93;6.22;;;19.00;99.90;;;;;;5091477;28;20241;-72
2023/06/12 00:45:14;;;;;;;5.13;4.63;;;19.00;99.90;;;;;;5091053;28;20198;-72
2023/06/12 00:47:41;;;;;;;6.45;5.95;;;19.10;99.90;;;;;;5091378;28;20588;-75
2023/06/12 00:50:11;;;;;;;6.80;5.25;;;19.10;99.90;;;;;;5090942;28;20279;-75
2023/06/12 00:52:43;;;;;;;6.25;5.22;;;19.10;99.90;;;;;;5091001;28;20210;-69
2023/06/12 00:55:10;;;;;;;5.38;4.88;;;19.10;99.90;;;;;;5091236;28;20688;-73
2023/06/12 00:57:38;;;;;;;9.98;5.47;;;19.10;99.90;;;;;;5091002;28;20263;-69
2023/06/12 01:00:07;;;;;;;7.07;5.95;;;19.10;99.90;;;;;;5090666;28;20607;-73
2023/06/12 01:02:39;;;;;;;5.90;5.22;;;19.10;99.90;;;;;;5090970;28;20229;-75
2023/06/12 01:05:07;;;;;;;6.15;4.93;;;19.10;99.90;;;;;;5090429;28;20209;-69
2023/06/12 01:07:45;;;;;;;6.13;4.63;;;19.00;99.90;;;;;;5090391;28;20225;-79
2023/06/12 01:10:16;;;;;;;5.82;5.00;;;19.10;99.90;;;;;;5091006;28;20206;-75
2023/06/12 01:12:44;;;;;;;9.52;6.03;;;19.00;99.90;;;;;;5090696;28;20233;-74
2023/06/12 01:15:12;;;;;;;7.28;5.07;;;18.90;99.90;;;;;;5090827;28;20211;-72
2023/06/12 01:17:40;;;;;;;6.75;5.18;;;19.00;99.90;;;;;;5090736;28;20233;-72
2023/06/12 01:20:10;;;;;;;6.07;5.22;;;19.00;99.90;;;;;;5090578;28;20320;-72
2023/06/12 01:22:41;;;;;;;6.90;5.13;;;19.00;99.90;;;;;;5091132;28;20214;-72
2023/06/12 01:25:22;;;;;;;6.22;5.45;;;19.10;99.90;;;;;;5090686;28;20294;-76
2023/06/12 01:28:05;;;;;;;5.57;4.28;;;19.10;99.90;;;;;;5090038;28;20241;-72
2023/06/12 01:31:06;;;;;;;6.65;5.00;;;19.00;99.90;;;;;;5090705;28;20241;-76
2023/06/12 01:33:40;;;;;;;5.05;4.55;;;19.10;99.90;;;;;;5090627;28;20576;-76
2023/06/12 01:36:12;;;;;;;5.47;5.03;;;19.10;99.90;;;;;;5090359;28;20676;-70
2023/06/12 01:38:40;;;;;;;6.22;5.63;;;19.10;99.90;;;;;;5090877;28;20624;-73
2023/06/12 01:41:09;;;;;;;7.88;5.20;;;19.10;99.90;;;;;;5090197;28;20248;-73
2023/06/12 01:43:36;;;;;;;7.60;5.45;;;19.00;99.90;;;;;;5090603;28;20233;-70
2023/06/12 01:46:06;;;;;;;8.25;6.32;;;19.00;99.90;;;;;;5090198;28;20236;-72
2023/06/12 01:48:34;;;;;;;8.38;5.55;;;19.00;99.90;;;;;;5090253;28;20208;-70
2023/06/12 01:51:01;;;;;;;8.70;5.03;;;18.80;99.90;;;;;;5089869;28;20251;-71
2023/06/12 01:53:28;;;;;;;5.40;4.70;;;18.80;99.90;;;;;;5090153;28;20639;-73
2023/06/12 01:55:56;;;;;;;6.00;5.07;;;18.80;99.90;;;;;;5089949;28;20230;-75
2023/06/12 01:58:23;;;;;;;6.75;4.63;;;18.70;99.90;;;;;;5090418;28;20235;-74
2023/06/12 02:00:53;;;;;;;5.97;4.43;;;18.80;73.20;;;;;;5089665;28;20271;-71
2023/06/12 02:03:22;;;;;;;7.25;4.13;;;18.80;1.00;;;;;;5092377;28;20209;-75
2023/06/12 02:05:50;;;;;;;9.63;5.97;;;18.80;1.00;;;;;;5103734;28;20204;-75
2023/06/12 02:08:17;;;;;;;7.22;5.13;;;18.90;1.00;;;;;;5094374;28;20245;-71
2023/06/12 02:10:44;;;;;;;6.30;4.65;;;18.80;1.00;;;;;;5093949;28;20237;-72
2023/06/12 02:13:11;;;;;;;7.40;5.78;;;18.80;1.00;;;;;;5094273;28;20201;-71
2023/06/12 02:15:38;;;;;;;6.15;3.97;;;18.80;1.00;;;;;;5094249;28;20680;-71
2023/06/12 02:18:05;;;;;;;5.90;3.70;;;18.70;99.90;;;;;;5093635;28;20237;-75
2023/06/12 02:20:32;;;;;;;6.22;4.55;;;18.70;1.00;;;;;;5093654;28;20236;-74
2023/06/12 02:23:00;;;;;;;8.48;4.03;;;18.70;1.00;;;;;;5093235;28;20680;-72
2023/06/12 02:25:27;;;;;;;6.32;3.83;;;18.70;96.40;;;;;;5104851;28;20265;-72
2023/06/12 02:27:54;;;;;;;6.13;3.28;;;18.70;1.00;;;;;;5096661;28;20704;-72
2023/06/12 02:30:21;;;;;;;6.13;3.58;;;18.70;99.90;;;;;;5093683;28;20205;-71
2023/06/12 02:32:49;;;;;;;5.25;3.70;;;18.60;1.00;;;;;;5093036;28;20233;-71
2023/06/12 02:35:16;;;;;;;5.00;3.53;;;18.60;99.90;;;;;;5093457;28;20297;-80
2023/06/12 02:37:43;;;;;;;5.15;3.05;;;18.60;1.00;;;;;;5093919;28;20237;-76
2023/06/12 02:40:13;;;;;;;4.78;3.25;;;18.50;98.10;;;;;;5093410;28;20290;-74
2023/06/12 02:42:40;;;;;;;5.45;3.42;;;18.40;1.00;;;;;;5093550;28;20240;-73
2023/06/12 02:45:07;;;;;;;3.42;3.13;;;18.40;1.00;;;;;;5092377;28;20259;-72
2023/06/12 02:47:34;;;;;;;5.95;3.83;;;18.50;99.90;;;;;;5093397;28;20242;-76
2023/06/12 02:50:02;;;;;;;3.65;3.35;;;18.50;1.00;;;;;;5092558;28;20700;-77
2023/06/12 02:52:29;;;;;;;4.05;3.65;;;18.50;1.00;;;;;;5092902;28;20201;-74
2023/06/12 02:54:56;;;;;;;3.03;2.75;;;18.50;99.90;;;;;;5091836;28;20307;-74
2023/06/12 02:57:24;;;;;;;4.05;3.28;;;18.40;1.00;;;;;;5100025;28;20688;-74
2023/06/12 02:59:51;;;;;;;3.38;3.08;;;18.50;1.00;;;;;;5109798;28;20278;-74
2023/06/12 03:02:18;;;;;;;4.43;3.88;;;18.50;99.90;;;;;;5108765;28;20241;-69
2023/06/12 03:04:45;;;;;;;3.78;3.20;;;18.50;1.00;;;;;;5092447;28;20201;-70
2023/06/12 03:07:12;;;;;;;3.72;2.80;;;18.60;1.00;;;;;;5092658;28;20237;-70
2023/06/12 03:09:39;;;;;;;4.70;3.42;;;18.50;1.00;;;;;;5093212;28;20620;-70
2023/06/12 03:12:06;;;;;;;3.50;2.40;;;18.50;99.90;;;;;;5092090;28;20233;-72
2023/06/12 03:14:35;;;;;;;3.00;2.70;;;18.30;1.00;;;;;;5092859;28;20349;-72
2023/06/12 03:17:01;;;;;;;4.63;2.83;;;18.30;1.00;;;;;;5092496;28;20244;-70
2023/06/12 03:19:28;;;;;;;2.90;2.70;;;18.40;99.90;;;;;;5092694;28;20245;-70
2023/06/12 03:21:55;;;;;;;4.93;3.15;;;18.40;1.00;;;;;;5096925;28;20240;-72
2023/06/12 03:24:24;;;;;;;4.38;2.83;;;18.40;1.00;;;;;;5108870;28;20232;-73
2023/06/12 03:26:51;;;;;;;3.63;3.13;;;18.40;1.00;;;;;;5110458;28;20236;-73
2023/06/12 03:29:17;;;;;;;5.07;2.50;;;18.30;1.00;;;;;;5100192;28;20241;-71
2023/06/12 03:31:46;;;;;;;4.93;2.95;;;18.40;99.90;;;;;;5097774;28;20237;-71
2023/06/12 03:34:15;;;;;;;5.63;2.78;;;18.40;99.90;;;;;;5095259;28;20237;-71
2023/06/12 03:36:43;;;;;;;3.95;3.08;;;18.40;1.00;;;;;;5110945;28;20205;-73
2023/06/12 03:39:10;;;;;;;3.90;2.30;;;18.40;1.00;;;;;;5106895;28;20206;-74
2023/06/12 03:41:37;;;;;;;4.18;2.50;;;18.40;1.00;;;;;;5098893;28;20232;-74
2023/06/12 03:44:04;;;;;;;5.35;2.50;;;18.30;1.00;;;;;;5100713;28;20244;-71
2023/06/12 03:46:32;;;;;;;4.95;2.65;;;18.30;99.90;;;;;;5096520;28;20243;-71
2023/06/12 03:49:02;;;;;;;6.75;2.38;;;18.20;99.90;;;;;;5111194;28;20215;-71
2023/06/12 03:51:29;;;;;;;5.85;2.97;;;18.10;1.00;;;;;;5107672;28;20295;-71
2023/06/12 03:53:56;;;;;;;6.10;2.67;;;18.00;1.00;;;;;;5108468;28;20657;-73
2023/06/12 03:56:23;;;;;;;3.63;2.55;;;18.00;1.00;;;;;;5102826;28;20229;-72
2023/06/12 03:58:50;;;;;;;5.18;2.83;;;18.10;1.00;;;;;;5099606;28;20639;-71
2023/06/12 04:01:17;;;;;;;6.00;3.83;;;18.10;99.90;;;;;;5100861;28;20233;-73
2023/06/12 04:03:45;;;;;;;5.45;3.03;;;18.10;99.90;;;;;;5091603;28;20236;-71
2023/06/12 04:06:14;;;;;;;6.72;3.00;;;18.10;32.90;;;;;;5091670;28;20236;-69
2023/06/12 04:08:41;;;;;;;4.13;3.67;;;18.10;1.00;;;;;;5091447;28;20684;-69
2023/06/12 04:11:09;;;;;;;3.33;2.70;;;18.10;1.00;;;;;;5091628;28;20255;-70
2023/06/12 04:13:36;;;;;;;3.58;3.15;;;18.10;1.00;;;;;;5091632;28;20215;-69
2023/06/12 04:16:03;;;;;;;3.08;2.50;;;18.10;1.00;;;;;;5108707;28;20707;-73
2023/06/12 04:18:30;;;;;;;5.43;4.97;;;18.20;1.00;;;;;;5104578;28;20217;-69
2023/06/12 04:20:57;;;;;;;6.07;5.47;;;18.30;1.00;;;;;;5097212;28;20225;-69
2023/06/12 04:23:29;;;;;;;6.13;3.95;;;18.30;1.00;;;;;;5093871;28;20303;-69
2023/06/12 04:26:01;;;;;;;4.32;3.83;;;18.30;1.00;;;;;;5095429;28;20212;-73
2023/06/12 04:28:28;;;;;;;8.05;4.07;;;18.30;1.00;;;;;;5093220;28;20229;-69
2023/06/12 04:30:55;;;;;;;3.75;3.45;;;18.40;1.00;;;;;;5095352;28;20250;-69
2023/06/12 04:33:23;;;;;;;8.02;3.65;;;18.30;1.00;;;;;;5093810;28;20225;-69
2023/06/12 04:35:50;;;;;;;7.32;3.38;;;18.40;1.00;;;;;;5093599;28;20202;-69
2023/06/12 04:38:19;;;;;;;11.25;4.05;;;18.40;1.00;;;;;;5094869;28;20242;-68
2023/06/12 04:40:47;;;;;;;7.75;4.75;;;18.50;1.00;;;;;;5092284;28;20621;-70
2023/06/12 04:43:19;;;;;;;6.47;3.83;;;18.50;1.00;;;;;;5095453;28;20206;-69
2023/06/12 04:45:46;;;;;;;7.78;3.88;;;18.60;1.00;;;;;;5092846;28;20209;-68
2023/06/12 04:48:13;;;;;;;3.65;3.30;;;18.60;1.00;;;;;;5095293;28;20200;-69
2023/06/12 04:50:41;;;;;;;4.72;2.67;;;18.60;1.00;;;;;;5093871;28;20198;-69
2023/06/12 04:53:08;;;;;;;3.30;3.00;;;18.60;1.00;;;;;;5095242;28;20232;-69
2023/06/12 04:55:35;;;;;;;7.47;4.45;;;18.70;1.00;;;;;;5092994;28;20205;-69
2023/06/12 04:58:03;;;;;;;4.03;3.63;;;18.70;1.00;;;;;;5093686;28;20244;-69
2023/06/12 05:00:30;;;;;;;7.07;3.78;;;18.70;1.00;;;;;;5092875;28;20265;-70
2023/06/12 05:02:58;;;;;;;5.10;3.38;;;18.70;1.00;;;;;;5092008;28;20206;-73
2023/06/12 05:05:27;;;;;;;5.05;3.28;;;18.70;1.00;;;;;;5105543;28;20231;-72
2023/06/12 05:07:54;;;;;;;3.53;3.10;;;18.70;1.00;;;;;;5108689;28;20204;-72
2023/06/12 05:10:21;;;;;;;5.35;2.95;;;18.70;1.00;;;;;;5106548;28;20288;-72
2023/06/12 05:12:48;;;;;;;5.30;3.17;;;18.80;1.00;;;;;;5101354;28;20256;-72
2023/06/12 05:15:16;;;;;;;9.63;3.70;;;18.90;1.00;;;;;;5092320;28;20248;-72
2023/06/12 05:17:43;;;;;;;3.00;2.80;;;18.90;1.00;;;;;;5102631;28;20250;-78
2023/06/12 05:20:11;;;;;;;5.00;2.97;;;18.90;1.00;;;;;;5092827;28;20240;-72
2023/06/12 05:22:38;;;;;;;5.38;3.22;;;18.90;1.00;;;;;;5090964;28;20236;-72
2023/06/12 05:25:05;;;;;;;4.35;2.80;;;18.90;1.00;;;;;;5089957;28;20251;-75
2023/06/12 05:27:32;;;;;;;2.97;2.42;;;19.00;1.00;;;;;;5090392;28;20674;-73
2023/06/12 05:29:59;;;;;;;4.43;3.60;;;19.00;1.00;;;;;;5089895;28;20255;-73
2023/06/12 05:32:28;;;;;;;5.07;3.83;;;19.00;1.00;;;;;;5092233;28;20205;-74
2023/06/12 05:34:55;;;;;;;3.90;3.20;;;19.00;1.00;;;;;;5110174;28;20240;-74
2023/06/12 05:37:21;;;;;;;4.15;2.95;;;19.00;1.00;;;;;;5109594;28;20209;-73
2023/06/12 05:39:48;;;;;;;3.22;2.92;;;19.00;1.00;;;;;;5092742;28;20201;-73
2023/06/12 05:42:16;;;;;;;5.65;3.35;;;19.10;1.00;;;;;;5095223;28;20272;-74
2023/06/12 05:44:43;;;;;;;10.23;4.95;;;19.00;99.90;;;;;;5114313;28;20200;-74
2023/06/12 05:47:10;;;;;;;4.57;3.72;;;19.00;99.90;;;;;;5106261;28;20237;-73
2023/06/12 05:49:38;;;;;;;3.78;3.28;;;19.00;99.90;;;;;;5095435;28;20738;-73
2023/06/12 05:52:07;;;;;;;3.45;3.15;;;19.00;99.90;;;;;;5094718;28;20244;-74
2023/06/12 05:54:34;;;;;;;3.40;3.13;;;19.10;99.90;;;;;;5095296;28;20769;-74
2023/06/12 05:57:02;;;;;;;4.93;3.58;;;19.10;99.90;;;;;;5094451;28;20677;-73
2023/06/12 05:59:29;;;;;;;9.02;3.22;;;19.10;99.90;;;;;;5095230;28;20610;-73
2023/06/12 06:01:56;;;;;;;5.40;4.05;;;19.10;99.90;;;;;;5094042;28;20724;-73
2023/06/12 06:04:23;;;;;;;4.28;3.88;;;19.10;99.90;;;;;;5094847;28;20236;-73
2023/06/12 06:06:53;;;;;;;6.82;4.03;;;19.20;99.90;;;;;;5094533;28;20256;-73
2023/06/12 06:09:20;;;;;;;6.13;4.07;;;19.20;99.90;;;;;;5094531;28;20251;-72
2023/06/12 06:11:47;;;;;;;5.47;4.10;;;19.10;99.90;;;;;;5113269;28;20197;-73
2023/06/12 06:14:13;;;;;;;5.97;3.80;;;19.20;99.90;;;;;;5095596;28;20241;-73
2023/06/12 06:16:41;;;;;;;5.63;5.07;;;19.20;99.90;;;;;;5093820;28;20649;-71
2023/06/12 06:19:09;;;;;;;5.20;4.50;;;19.20;99.90;;;;;;5093770;28;20298;-72
2023/06/12 06:21:35;;;;;;;47.47;12.98;;;19.20;99.90;;;;;;5093831;28;20284;-72
2023/06/12 06:24:04;;;;;;;5.50;4.15;;;19.30;99.90;;;;;;5093687;28;20275;-73
2023/06/12 06:26:32;;;;;;;7.10;4.30;;;19.20;99.90;;;;;;5094013;28;20237;-72
2023/06/12 06:28:59;;;;;;;5.50;4.85;;;19.20;99.90;;;;;;5092321;28;20209;-73
2023/06/12 06:31:27;;;;;;;4.97;4.47;;;19.20;99.90;;;;;;5092872;28;20561;-71
2023/06/12 06:33:54;;;;;;;4.68;4.30;;;19.20;99.90;;;;;;5093951;28;20270;-72
2023/06/12 06:36:23;;;;;;;12.02;5.25;;;19.30;99.90;;;;;;5102471;28;20201;-72
2023/06/12 06:38:49;;;;;;;6.43;4.95;;;19.20;99.90;;;;;;5104676;28;20581;-71
2023/06/12 06:41:18;;;;;;;8.45;6.15;;;19.20;99.90;;;;;;5108548;28;20315;-72
2023/06/12 06:43:45;;;;;;;7.72;5.13;;;19.20;99.90;;;;;;5109641;28;20659;-72
2023/06/12 06:46:12;;;;;;;6.50;5.88;;;19.20;99.90;;;;;;5095327;28;20648;-72
2023/06/12 06:48:39;;;;;;;6.07;5.47;;;19.30;99.90;;;;;;5094306;28;20237;-72
2023/06/12 06:51:06;;;;;;;7.35;5.60;;;19.40;99.90;;;;;;5099698;28;20215;-71
2023/06/12 06:53:34;;;;;;;6.07;5.57;;;19.40;99.90;;;;;;5092077;28;20298;-72
2023/06/12 06:56:01;;;;;;;6.25;5.65;;;19.40;99.90;;;;;;5092363;28;20213;-72
2023/06/12 06:58:30;;;;;;;44.13;39.35;;;19.40;99.90;;;;;;5093021;28;20233;-72
2023/06/12 07:00:57;;;;;;;10.48;7.82;;;19.30;99.90;;;;;;5092883;28;20271;-73
2023/06/12 07:03:24;;;;;;;8.93;8.02;;;19.20;99.90;;;;;;5094109;28;20209;-71
2023/06/12 07:05:51;;;;;;;21.40;18.85;;;19.10;99.90;;;;;;5102182;28;20241;-72
2023/06/12 07:08:18;;;;;;;12.00;10.50;;;19.10;99.90;;;;;;5098371;28;20247;-72
2023/06/12 07:10:44;;;;;;;9.27;7.57;;;19.20;99.90;;;;;;5100283;28;20240;-73
2023/06/12 07:13:12;;;;;;;9.98;7.03;;;19.20;99.90;;;;;;5099100;28;20655;-72
2023/06/12 07:15:40;;;;;;;7.00;5.93;;;19.20;99.90;;;;;;5094973;28;20237;-70
2023/06/12 07:18:07;;;;;;;20.33;8.10;;;19.30;99.90;;;;;;5094748;28;20233;-73
2023/06/12 07:20:34;;;;;;;7.97;6.97;;;19.20;99.90;;;;;;5100832;28;20238;-71
2023/06/12 07:23:01;;;;;;;7.90;7.05;;;19.20;99.90;;;;;;5099695;28;21099;-71
2023/06/12 07:25:28;;;;;;;10.60;6.82;;;19.30;99.90;;;;;;5103274;28;20247;-72
2023/06/12 07:27:55;;;;;;;23.73;11.80;;;19.30;99.90;;;;;;5107707;28;20688;-72
2023/06/12 07:30:22;;;;;;;18.85;8.77;;;19.40;99.90;;;;;;5106891;28;20680;-70
2023/06/12 07:32:50;;;;;;;7.97;7.28;;;19.40;99.90;;;;;;5104492;28;20259;-72
2023/06/12 07:35:17;;;;;;;12.70;8.20;;;19.50;99.90;;;;;;5106544;28;20668;-72
2023/06/12 07:37:45;;;;;;;7.03;6.43;;;19.50;99.90;;;;;;5102889;28;20233;-71
2023/06/12 07:52:24;;;;;;;8.30;7.60;;;19.40;99.90;;;;;;5087915;28;20295;-70
2023/06/12 07:54:51;;;;;;;9.02;7.65;;;19.80;99.90;;;;;;5066241;28;20234;-70
2023/06/12 07:57:18;;;;;;;7.65;6.85;;;19.90;99.90;;;;;;5067204;28;20285;-71
2023/06/12 07:59:45;;;;;;;70.10;63.22;;;20.00;99.90;;;;;;5066274;28;20207;-70
2023/06/12 08:02:12;;;;;;;19.23;17.38;;;20.00;99.90;;;;;;5066766;28;20665;-70
2023/06/12 08:04:40;;;;;;;8.52;7.72;;;20.10;99.90;;;;;;5066963;28;20202;-70
2023/06/12 08:07:10;;;;;;;7.85;6.05;;;20.10;99.90;;;;;;5066186;28;20202;-70
2023/06/12 08:09:39;;;;;;;8.25;7.15;;;20.20;99.90;;;;;;5067100;28;20210;-70
2023/06/12 08:12:07;;;;;;;7.70;6.82;;;20.10;99.90;;;;;;5066023;28;20228;-69
2023/06/12 08:14:33;;;;;;;14.40;8.52;;;20.10;99.90;;;;;;5067521;28;20275;-71
2023/06/12 08:17:00;;;;;;;14.48;13.10;;;20.00;99.90;;;;;;5067001;28;20246;-71
2023/06/12 08:19:28;;;;;;;26.13;23.38;;;20.10;99.90;;;;;;5067145;28;20225;-69
2023/06/12 08:21:55;;;;;;;12.05;8.30;;;20.20;99.90;;;;;;5066474;28;20237;-69
2023/06/12 08:24:23;;;;;;;46.03;41.30;;;20.20;99.90;;;;;;5065462;28;20614;-70
2023/06/12 08:26:51;;;;;;;11.63;8.88;;;20.10;99.90;;;;;;5066193;28;20214;-70
2023/06/12 08:29:18;;;;;;;8.55;6.88;;;20.00;99.90;;;;;;5065265;28;20210;-73
2023/06/12 08:31:45;;;;;;;8.43;7.68;;;20.10;99.90;;;;;;5066378;28;20267;-70
2023/06/12 08:34:12;;;;;;;7.45;6.68;;;20.20;99.90;;;;;;5066710;28;20230;-70
2023/06/12 08:36:39;;;;;;;7.95;7.10;;;20.30;99.90;;;;;;5059292;28;20241;-73
2023/06/12 08:39:06;;;;;;;8.25;7.53;;;20.40;99.90;;;;;;5059273;28;20203;-70
2023/06/12 08:41:35;;;;;;;7.05;6.47;;;20.40;99.90;;;;;;5059411;28;20241;-70
2023/06/12 08:44:04;;;;;;;6.57;5.82;;;20.50;99.90;;;;;;5066872;28;20211;-69
2023/06/12 08:46:31;;;;;;;7.65;6.07;;;20.50;99.90;;;;;;5055334;28;20234;-72
2023/06/12 08:49:00;;;;;;;8.80;6.57;;;20.60;99.90;;;;;;5066039;28;20210;-74
2023/06/12 08:51:28;;;;;;;8.23;7.43;;;20.70;99.90;;;;;;5062434;28;20678;-70
2023/06/12 08:53:57;;;;;;;7.55;6.38;;;20.70;99.90;;;;;;5052050;28;20238;-71
2023/06/12 08:56:25;;;;;;;6.72;6.15;;;20.70;99.90;;;;;;5052164;28;20689;-70
2023/06/12 08:58:52;;;;;;;8.70;7.82;;;20.60;99.90;;;;;;5042274;28;20246;-69
2023/06/12 09:01:23;;;;;;;7.20;6.57;;;20.50;99.90;;;;;;5052293;28;20266;-70
2023/06/12 09:03:56;;;;;;;7.82;6.03;;;20.60;99.90;;;;;;5044608;28;20211;-70
2023/06/12 09:06:23;;;;;;;6.93;6.32;;;20.80;99.90;;;;;;5052866;28;20280;-72
2023/06/12 09:08:50;;;;;;;10.25;6.95;;;20.90;99.90;;;;;;5052474;28;20203;-75
2023/06/12 09:11:17;;;;;;;7.07;6.38;;;21.10;99.90;;;;;;5052928;28;20199;-72
2023/06/12 09:13:44;;;;;;;6.10;5.60;;;21.20;99.90;;;;;;5051825;28;20284;-73
2023/06/12 09:16:13;;;;;;;6.60;6.00;;;21.20;99.90;;;;;;5052734;28;20242;-74
2023/06/12 09:18:51;;;;;;;6.93;6.07;;;21.20;99.90;;;;;;5052297;28;20206;-71
2023/06/12 09:21:18;;;;;;;9.80;8.88;;;21.10;99.90;;;;;;5051586;28;20610;-73
2023/06/12 09:23:47;;;;;;;9.88;8.10;;;21.00;99.90;;;;;;5051869;28;20235;-71
2023/06/12 09:26:15;;;;;;;8.45;7.13;;;21.20;99.90;;;;;;5052367;28;20231;-74
2023/06/12 09:28:45;;;;;;;8.32;6.18;;;21.20;99.90;;;;;;5051339;28;20210;-74
2023/06/12 09:31:14;;;;;;;7.15;6.45;;;21.30;99.90;;;;;;5047929;28;20238;-73
2023/06/12 09:33:41;;;;;;;6.03;5.53;;;21.40;99.90;;;;;;5050587;28;20692;-68
2023/06/12 09:36:12;;;;;;;6.25;5.65;;;21.50;99.90;;;;;;5052262;28;20294;-69
2023/06/12 09:38:39;;;;;;;7.10;6.30;;;21.40;99.90;;;;;;5050564;28;20206;-74
2023/06/12 09:41:09;;;;;;;6.78;6.07;;;21.70;99.90;;;;;;5048697;28;20314;-70
2023/06/12 09:43:35;;;;;;;9.75;5.80;;;21.90;99.90;;;;;;5045919;28;20237;-71
2023/06/12 09:46:05;;;;;;;7.68;5.82;;;22.00;99.90;;;;;;5052163;28;20210;-70
2023/06/12 09:48:36;;;;;;;7.35;6.70;;;21.90;99.90;;;;;;5050925;28;20230;-73
2023/06/12 09:51:10;;;;;;;6.97;6.30;;;21.90;99.90;;;;;;5048416;28;20269;-72
2023/06/12 09:53:39;;;;;;;6.07;5.57;;;21.90;99.90;;;;;;5051175;28;20228;-72
2023/06/12 09:56:07;;;;;;;6.03;5.43;;;21.90;99.90;;;;;;5051999;28;20211;-72
2023/06/12 09:58:38;;;;;;;6.57;5.68;;;21.50;99.90;;;;;;5052261;28;20205;-72
2023/06/12 10:01:07;;;;;;;5.43;4.97;;;21.50;99.90;;;;;;5050778;28;20804;-76
2023/06/12 10:03:37;;;;;;;6.63;6.07;;;21.30;99.90;;;;;;5051079;28;20203;-73
2023/06/12 10:06:07;;;;;;;6.50;5.90;;;21.50;99.90;;;;;;5052134;28;20207;-72
2023/06/12 10:08:35;;;;;;;6.68;5.60;;;21.60;99.90;;;;;;5047835;28;20300;-74
2023/06/12 10:11:04;;;;;;;6.68;6.18;;;21.70;99.90;;;;;;5049208;28;20671;-74
2023/06/12 10:13:32;;;;;;;7.38;6.43;;;21.80;99.90;;;;;;5047964;28;20203;-73
2023/06/12 10:15:59;;;;;;;6.93;5.80;;;22.10;99.90;;;;;;5050982;28;20213;-75
2023/06/12 10:18:28;;;;;;;6.88;6.22;;;22.10;99.90;;;;;;5050818;28;20678;-73
2023/06/12 10:20:55;;;;;;;7.03;6.25;;;22.20;99.90;;;;;;5051079;28;20725;-76
2023/06/12 10:23:23;;;;;;;10.88;6.45;;;22.20;99.90;;;;;;5048452;28;20243;-71
2023/06/12 10:25:53;;;;;;;7.78;7.07;;;22.50;99.90;;;;;;5048017;28;20226;-70
2023/06/12 10:28:20;;;;;;;7.65;7.05;;;22.70;99.90;;;;;;5050276;28;20678;-70
2023/06/12 10:31:08;;;;;;;6.53;5.93;;;23.20;99.90;;;;;;5047559;28;20247;-71
2023/06/12 10:33:35;;;;;;;6.80;6.10;;;23.10;99.90;;;;;;5046676;28;20606;-71
2023/06/12 10:36:10;;;;;;;8.80;7.43;;;23.00;99.90;;;;;;5051191;28;20300;-71
2023/06/12 10:38:44;;;;;;;7.50;6.57;;;23.10;99.90;;;;;;5050575;28;20264;-70
2023/06/12 10:41:13;;;;;;;7.40;6.70;;;22.80;99.90;;;;;;5049613;28;20225;-70
2023/06/12 10:43:41;;;;;;;6.55;5.82;;;22.40;99.90;;;;;;5050421;28;20234;-70
2023/06/12 10:46:12;;;;;;;12.98;9.15;;;22.20;99.90;;;;;;5051093;28;20215;-71
2023/06/12 10:48:47;;;;;;;10.75;8.18;;;22.30;99.90;;;;;;5049494;28;20570;-70
2023/06/12 10:51:14;;;;;;;6.63;6.13;;;22.50;99.90;;;;;;5050603;28;20272;-70
2023/06/12 10:53:44;;;;;;;7.25;6.63;;;22.50;99.90;;;;;;5050720;28;20260;-71
2023/06/12 10:56:12;;;;;;;7.15;6.65;;;22.30;99.90;;;;;;5050796;28;20584;-70
2023/06/12 10:58:40;;;;;;;8.27;6.45;;;22.30;99.90;;;;;;5050907;28;20261;-70
2023/06/12 11:01:09;;;;;;;8.15;5.63;;;22.30;99.90;;;;;;5050536;28;20273;-70
2023/06/12 11:03:39;;;;;;;6.10;5.50;;;22.30;99.90;;;;;;5050949;28;20199;-70
2023/06/12 11:06:13;;;;;;;7.50;5.57;;;22.40;99.90;;;;;;5050567;28;20218;-70
2023/06/12 11:08:41;;;;;;;7.90;6.45;;;22.40;99.90;;;;;;5049615;28;20203;-71
2023/06/12 11:11:09;;;;;;;7.47;6.78;;;22.40;99.90;;;;;;5050825;28;20211;-71
2023/06/12 11:13:40;;;;;;;10.20;6.70;;;22.50;99.90;;;;;;5050432;28;20237;-70
2023/06/12 11:16:07;;;;;;;7.28;6.70;;;22.50;99.90;;;;;;5050317;28;20256;-72
2023/06/12 11:18:34;;;;;;;7.80;7.10;;;22.80;99.90;;;;;;5050864;28;20272;-70
2023/06/12 11:21:01;;;;;;;6.93;6.07;;;23.10;99.90;;;;;;5047074;28;20227;-72
2023/06/12 11:23:29;;;;;;;9.65;5.85;;;23.20;99.90;;;;;;5047869;28;20235;-72
2023/06/12 11:25:57;;;;;;;8.43;6.75;;;23.40;99.90;;;;;;5050085;28;20246;-71
2023/06/12 11:28:25;;;;;;;8.13;7.43;;;23.50;99.90;;;;;;5040690;28;20295;-69
2023/06/12 11:30:55;;;;;;;7.32;6.55;;;23.70;99.90;;;;;;5048258;28;20214;-69
2023/06/12 11:33:22;;;;;;;10.75;7.93;;;23.80;99.90;;;;;;5045424;28;20678;-69
2023/06/12 11:35:51;;;;;;;8.43;7.72;;;23.70;99.90;;;;;;5048002;28;20621;-70
2023/06/12 11:38:20;;;;;;;7.97;7.20;;;23.60;99.90;;;;;;5049149;28;20234;-70
2023/06/12 11:40:48;;;;;;;10.10;7.03;;;23.50;99.90;;;;;;5048389;28;20211;-72
2023/06/12 11:43:16;;;;;;;7.90;7.22;;;23.30;99.90;;;;;;5049029;28;20207;-72
2023/06/12 11:45:43;;;;;;;8.45;7.72;;;23.00;99.90;;;;;;5047596;28;20213;-70
2023/06/12 11:48:14;;;;;;;9.38;8.32;;;23.00;99.90;;;;;;5049811;28;20258;-71
2023/06/12 11:50:42;;;;;;;9.00;7.63;;;23.30;99.90;;;;;;5049427;28;20264;-71
2023/06/12 11:53:09;;;;;;;8.70;7.90;;;23.30;99.90;;;;;;5049815;28;20210;-74
2023/06/12 11:55:36;;;;;;;10.57;7.70;;;23.30;99.90;;;;;;5049975;28;20667;-71
2023/06/12 11:58:04;;;;;;;8.07;7.38;;;23.30;99.90;;;;;;5049943;28;20669;-73
2023/06/12 12:00:33;;;;;;;10.45;8.40;;;23.40;99.90;;;;;;5050280;28;20199;-72
2023/06/12 12:03:02;;;;;;;11.05;8.00;;;23.40;99.90;;;;;;5049233;28;20288;-72
2023/06/12 12:05:35;;;;;;;9.60;8.40;;;23.10;99.90;;;;;;5050341;28;20234;-73
2023/06/12 12:08:04;;;;;;;9.30;8.40;;;22.90;99.90;;;;;;5049934;28;20203;-75
2023/06/12 12:10:33;;;;;;;8.82;8.02;;;23.00;99.90;;;;;;5048441;28;20667;-74
2023/06/12 12:13:01;;;;;;;9.45;8.65;;;22.90;99.90;;;;;;5049098;28;20678;-74
2023/06/12 12:15:29;;;;;;;8.40;7.60;;;23.00;99.90;;;;;;5048969;28;20731;-72
2023/06/12 12:17:56;;;;;;;9.32;8.50;;;23.00;99.90;;;;;;5049055;28;20238;-72
2023/06/12 12:20:25;;;;;;;10.73;9.15;;;23.20;99.90;;;;;;5049010;28;20235;-73
2023/06/12 12:22:54;;;;;;;8.85;7.95;;;23.30;99.90;;;;;;5048941;28;20283;-71
2023/06/12 12:25:23;;;;;;;8.68;7.88;;;23.30;99.90;;;;;;5049838;28;20203;-74
2023/06/12 12:27:51;;;;;;;8.18;7.35;;;23.30;99.90;;;;;;5051747;28;20242;-74
2023/06/12 12:30:18;;;;;;;8.20;7.35;;;23.40;99.90;;;;;;5053448;28;20257;-73
2023/06/12 12:32:46;;;;;;;8.88;8.07;;;23.20;99.90;;;;;;5053106;28;20238;-72
2023/06/12 12:35:14;;;;;;;8.05;7.25;;;23.40;99.90;;;;;;5053396;28;20241;-73
2023/06/12 12:37:42;;;;;;;9.27;8.45;;;23.50;99.90;;;;;;5053125;28;20276;-72
2023/06/12 12:40:13;;;;;;;9.90;8.90;;;23.40;99.90;;;;;;5053205;28;20639;-72
2023/06/12 12:42:41;;;;;;;10.07;9.25;;;23.70;99.90;;;;;;5053124;28;20235;-73
2023/06/12 12:45:09;;;;;;;8.70;7.95;;;23.70;99.90;;;;;;5053419;28;20242;-73
2023/06/12 12:47:37;;;;;;;11.75;8.20;;;23.80;99.90;;;;;;5051124;28;20234;-72
2023/06/12 12:50:04;;;;;;;8.80;7.90;;;24.40;99.90;;;;;;5049924;28;20238;-72
2023/06/12 12:52:31;;;;;;;8.55;7.50;;;24.30;99.90;;;;;;5052986;28;20238;-72
2023/06/12 12:54:58;;;;;;;8.02;7.32;;;24.20;99.90;;;;;;5052666;28;20245;-71
2023/06/12 12:57:32;;;;;;;8.27;7.40;;;24.90;99.90;;;;;;5052955;28;20388;-71
2023/06/12 13:00:00;;;;;;;10.63;8.10;;;25.00;99.90;;;;;;5051081;28;20199;-71
2023/06/12 13:02:27;;;;;;;9.05;8.25;;;24.90;99.90;;;;;;5052565;28;20235;-72
2023/06/12 13:04:54;;;;;;;9.98;9.07;;;24.50;99.90;;;;;;5052336;28;20203;-70